createdAt,value
2023-04-15T00:01:37.312Z,8.50
2023-04-15T00:04:40.153Z,9.23
2023-04-15T00:07:42.700Z,8.27
2023-04-15T00:10:46.707Z,9.48
2023-04-15T00:13:49.440Z,9.52
2023-04-15T00:16:56.274Z,10.88
2023-04-15T00:20:00.011Z,12.63
2023-04-15T00:23:04.199Z,11.57
2023-04-15T00:26:07.562Z,11.43
2023-04-15T00:29:10.390Z,12.75
2023-04-15T00:32:13.445Z,11.35
2023-04-15T00:35:16.606Z,10.53
2023-04-15T00:38:18.999Z,11.75
2023-04-15T00:41:23.084Z,9.65
2023-04-15T00:44:25.769Z,11.93
2023-04-15T00:47:30.016Z,11.23
2023-04-15T00:50:33.718Z,10.80
2023-04-15T00:53:36.367Z,9.68
2023-04-15T00:56:39.798Z,10.73
2023-04-15T00:59:42.627Z,10.10
2023-04-15T01:02:45.759Z,9.30
2023-04-15T01:05:49.417Z,10.13
2023-04-15T01:08:51.766Z,13.30
2023-04-15T01:11:54.639Z,13.62
2023-04-15T01:14:57.367Z,15.68
2023-04-15T01:18:00.404Z,16.08
2023-04-15T01:21:03.885Z,15.77
2023-04-15T01:24:10.417Z,16.17
2023-04-15T01:27:12.725Z,14.38
2023-04-15T01:30:15.614Z,16.35
2023-04-15T01:33:17.955Z,16.20
2023-04-15T01:36:21.371Z,15.90
2023-04-15T01:39:23.707Z,15.82
2023-04-15T01:42:27.750Z,14.52
2023-04-15T01:45:30.312Z,15.98
2023-04-15T01:48:33.487Z,15.40
2023-04-15T01:51:35.814Z,15.03
2023-04-15T01:54:38.433Z,15.30
2023-04-15T01:57:41.234Z,18.92
2023-04-15T02:00:44.066Z,15.82
2023-04-15T02:03:48.037Z,13.98
2023-04-15T02:06:50.862Z,15.13
2023-04-15T02:09:53.427Z,12.95
2023-04-15T02:12:55.776Z,15.65
2023-04-15T02:15:59.738Z,16.42
2023-04-15T02:19:02.592Z,13.40
2023-04-15T02:22:05.375Z,12.53
2023-04-15T02:25:09.112Z,13.95
2023-04-15T02:28:12.369Z,14.45
2023-04-15T02:31:15.113Z,13.13
2023-04-15T02:34:17.513Z,15.30
2023-04-15T02:37:20.562Z,13.37
2023-04-15T02:40:22.929Z,13.35
2023-04-15T02:43:26.236Z,13.05
2023-04-15T02:46:28.588Z,13.02
2023-04-15T02:49:31.283Z,14.50
2023-04-15T02:52:33.620Z,13.27
2023-04-15T02:55:36.406Z,13.55
2023-04-15T02:58:40.698Z,15.93
2023-04-15T03:01:43.792Z,12.52
2023-04-15T03:04:46.491Z,13.15
2023-04-15T03:07:49.252Z,12.37
2023-04-15T03:10:53.097Z,13.40
2023-04-15T03:13:55.767Z,12.18
2023-04-15T03:16:59.549Z,12.77
2023-04-15T03:20:05.079Z,14.50
2023-04-15T03:23:07.631Z,14.20
2023-04-15T03:26:10.368Z,13.45
2023-04-15T03:29:12.726Z,12.35
2023-04-15T03:32:15.897Z,11.50
2023-04-15T03:35:18.241Z,14.85
2023-04-15T03:38:21.082Z,13.30
2023-04-15T03:41:23.638Z,11.30
2023-04-15T03:44:29.279Z,13.13
2023-04-15T03:47:32.181Z,12.52
2023-04-15T03:50:34.844Z,13.73
2023-04-15T03:53:37.125Z,14.17
2023-04-15T03:56:39.813Z,14.73
2023-04-15T03:59:42.114Z,11.80
2023-04-15T04:02:46.219Z,13.38
2023-04-15T04:05:49.002Z,13.45
2023-04-15T04:08:51.290Z,16.87
2023-04-15T04:11:53.885Z,11.10
2023-04-15T04:14:56.389Z,10.27
2023-04-15T04:17:58.990Z,12.55
2023-04-15T04:21:01.573Z,14.15
2023-04-15T04:24:04.621Z,13.53
2023-04-15T04:27:07.143Z,11.50
2023-04-15T04:30:09.952Z,12.00
2023-04-15T04:33:12.424Z,10.65
2023-04-15T04:36:15.023Z,13.30
2023-04-15T04:39:17.318Z,12.23
2023-04-15T04:42:20.067Z,11.73
2023-04-15T04:45:22.752Z,10.82
2023-04-15T04:48:26.021Z,12.02
2023-04-15T04:51:28.382Z,9.80
2023-04-15T04:54:31.619Z,13.13
2023-04-15T04:57:35.897Z,10.43
2023-04-15T05:00:39.014Z,9.88
2023-04-15T05:03:41.894Z,10.25
2023-04-15T05:06:44.832Z,10.48
2023-04-15T05:09:47.482Z,9.53
2023-04-15T05:12:50.545Z,10.45
2023-04-15T05:15:53.409Z,7.87
2023-04-15T05:18:56.189Z,8.70
2023-04-15T05:21:58.473Z,10.88
2023-04-15T05:25:01.143Z,8.47
2023-04-15T05:28:03.549Z,10.32
2023-04-15T05:31:07.368Z,8.95
2023-04-15T05:34:10.401Z,11.48
2023-04-15T05:37:13.117Z,9.50
2023-04-15T05:40:15.486Z,9.73
2023-04-15T05:43:18.117Z,11.45
2023-04-15T05:46:20.581Z,9.07
2023-04-15T05:49:23.297Z,9.93
2023-04-15T05:52:25.703Z,10.70
2023-04-15T05:55:28.371Z,9.67
2023-04-15T05:58:31.434Z,11.30
2023-04-15T06:01:34.402Z,10.02
2023-04-15T06:04:37.214Z,10.65
2023-04-15T06:07:39.650Z,10.90
2023-04-15T06:10:42.333Z,9.57
2023-04-15T06:13:44.662Z,10.88
2023-04-15T06:16:47.357Z,10.00
2023-04-15T06:19:51.793Z,13.45
2023-04-15T06:22:54.575Z,11.10
2023-04-15T06:25:56.878Z,11.63
2023-04-15T06:28:59.686Z,10.18
2023-04-15T06:32:02.204Z,8.73
2023-04-15T06:35:05.616Z,10.38
2023-04-15T06:38:08.005Z,10.00
2023-04-15T06:41:10.785Z,12.93
2023-04-15T06:44:13.143Z,9.93
2023-04-15T06:47:15.959Z,11.52
2023-04-15T06:50:18.695Z,9.85
2023-04-15T06:53:22.113Z,9.38
2023-04-15T06:56:24.436Z,10.67
2023-04-15T06:59:27.433Z,9.80
2023-04-15T07:02:29.898Z,8.02
2023-04-15T07:05:32.615Z,10.95
2023-04-15T07:08:35.028Z,11.38
2023-04-15T07:11:37.691Z,11.50
2023-04-15T07:14:40.169Z,21.60
2023-04-15T07:17:45.549Z,14.82
2023-04-15T07:20:48.331Z,7.43
2023-04-15T07:23:51.191Z,8.85
2023-04-15T07:26:59.476Z,8.63
2023-04-15T07:30:03.773Z,9.13
2023-04-15T07:33:07.137Z,7.32
2023-04-15T07:36:10.779Z,7.55
2023-04-15T07:39:13.595Z,7.68
2023-04-15T07:42:17.084Z,10.13
2023-04-15T07:45:20.153Z,8.77
2023-04-15T07:48:22.848Z,6.20
2023-04-15T07:51:25.724Z,8.55
2023-04-15T07:54:28.379Z,6.50
2023-04-15T07:57:31.004Z,7.20
2023-04-15T08:00:33.675Z,6.12
2023-04-15T08:03:36.626Z,7.47
2023-04-15T08:06:40.154Z,6.53
2023-04-15T08:09:42.968Z,6.72
2023-04-15T08:12:49.134Z,6.60
2023-04-15T08:16:14.284Z,6.47
2023-04-15T08:19:17.234Z,6.95
2023-04-15T08:22:21.304Z,7.68
2023-04-15T08:25:28.017Z,8.38
2023-04-15T08:28:30.910Z,8.60
2023-04-15T08:31:33.419Z,6.30
2023-04-15T08:34:36.387Z,7.00
2023-04-15T08:37:38.701Z,5.07
2023-04-15T08:40:43.447Z,5.47
2023-04-15T08:44:07.660Z,5.13
2023-04-15T08:47:14.746Z,6.57
2023-04-15T08:50:18.057Z,4.80
2023-04-15T08:53:21.633Z,5.32
2023-04-15T08:56:28.228Z,6.80
2023-04-15T08:59:31.516Z,5.30
2023-04-15T09:02:34.001Z,7.03
2023-04-15T09:05:37.620Z,7.15
2023-04-15T09:08:40.467Z,7.78
2023-04-15T09:11:43.293Z,6.95
2023-04-15T09:14:47.284Z,6.23
2023-04-15T09:17:50.127Z,7.00
2023-04-15T09:20:53.651Z,5.05
2023-04-15T09:24:01.661Z,5.53
2023-04-15T09:27:04.428Z,5.07
2023-04-15T09:30:09.307Z,5.70
2023-04-15T09:33:14.760Z,5.95
2023-04-15T09:36:17.520Z,4.72
2023-04-15T09:39:20.188Z,6.12
2023-04-15T09:42:26.982Z,4.85
2023-04-15T09:45:30.221Z,6.33
2023-04-15T09:48:32.865Z,9.55
2023-04-15T09:51:36.056Z,5.93
2023-04-15T09:54:39.320Z,6.87
2023-04-15T09:57:41.933Z,16.00
2023-04-15T10:00:45.321Z,8.53
2023-04-15T10:03:48.484Z,7.30
2023-04-15T10:06:51.365Z,5.22
2023-04-15T10:09:55.182Z,8.77
2023-04-15T10:12:57.587Z,5.15
2023-04-15T10:16:07.841Z,6.60
2023-04-15T10:19:11.260Z,5.65
2023-04-15T10:22:15.064Z,5.32
2023-04-15T10:25:18.395Z,5.62
2023-04-15T10:28:25.203Z,4.37
2023-04-15T10:31:28.556Z,3.83
2023-04-15T10:34:32.321Z,4.25
2023-04-15T10:37:39.204Z,4.25
2023-04-15T10:40:42.318Z,3.97
2023-04-15T10:43:54.504Z,4.43
2023-04-15T10:46:58.629Z,4.10
2023-04-15T10:50:02.609Z,3.53
2023-04-15T10:53:05.753Z,3.67
2023-04-15T10:56:08.630Z,4.32
2023-04-15T10:59:12.895Z,6.12
2023-04-15T11:02:15.621Z,4.40
2023-04-15T11:05:19.562Z,4.07
2023-04-15T11:08:55.642Z,4.90
2023-04-15T11:12:10.869Z,4.03
2023-04-15T11:15:42.298Z,4.65
2023-04-15T11:18:54.816Z,3.57
2023-04-15T11:21:57.502Z,3.70
2023-04-15T11:25:00.072Z,3.70
2023-04-15T11:28:02.888Z,3.15
2023-04-15T11:31:28.627Z,3.72
2023-04-15T11:34:33.705Z,4.13
2023-04-15T11:37:37.162Z,3.22
2023-04-15T11:40:40.311Z,3.67
2023-04-15T11:43:42.937Z,3.97
2023-04-15T11:46:45.684Z,4.28
2023-04-15T11:49:48.621Z,4.93
2023-04-15T11:52:58.978Z,4.55
2023-04-15T11:56:02.008Z,4.10
2023-04-15T11:59:04.459Z,3.40
2023-04-15T12:02:14.175Z,3.42
2023-04-15T12:05:17.259Z,4.50
2023-04-15T12:08:19.741Z,4.12
2023-04-15T12:11:36.279Z,4.10
2023-04-15T12:14:40.146Z,3.70
2023-04-15T12:17:51.990Z,4.32
2023-04-15T12:20:54.695Z,4.13
2023-04-15T12:23:58.215Z,4.22
2023-04-15T12:27:04.321Z,3.50
2023-04-15T12:30:08.116Z,4.22
2023-04-15T12:33:12.534Z,6.75
2023-04-15T12:36:16.618Z,5.07
2023-04-15T12:39:22.612Z,4.00
2023-04-15T12:42:25.286Z,4.45
2023-04-15T12:45:29.463Z,3.40
2023-04-15T12:48:33.327Z,4.28
2023-04-15T12:51:35.766Z,3.70
2023-04-15T12:54:39.615Z,4.47
2023-04-15T12:57:41.888Z,4.05
2023-04-15T13:00:44.851Z,4.00
2023-04-15T13:03:48.156Z,6.03
2023-04-15T13:06:50.916Z,4.70
2023-04-15T13:09:53.224Z,4.70
2023-04-15T13:12:56.845Z,5.72
2023-04-15T13:16:01.504Z,4.55
2023-04-15T13:19:04.346Z,3.90
2023-04-15T13:22:08.368Z,4.53
2023-04-15T13:25:11.711Z,4.53
2023-04-15T13:28:14.109Z,4.60
2023-04-15T13:31:16.951Z,4.10
2023-04-15T13:34:19.692Z,4.78
2023-04-15T13:37:28.013Z,3.77
2023-04-15T13:40:31.412Z,4.82
2023-04-15T13:43:34.368Z,4.12
2023-04-15T13:46:37.853Z,4.10
2023-04-15T13:49:41.149Z,4.25
2023-04-15T13:52:43.574Z,5.43
2023-04-15T13:55:46.298Z,5.78
2023-04-15T13:58:48.685Z,5.65
2023-04-15T14:01:51.402Z,4.80
2023-04-15T14:04:54.097Z,5.32
2023-04-15T14:07:56.488Z,7.27
2023-04-15T14:10:59.352Z,7.30
2023-04-15T14:14:01.658Z,7.45
2023-04-15T14:17:05.461Z,7.35
2023-04-15T14:20:09.434Z,6.82
2023-04-15T14:23:12.077Z,6.37
2023-04-15T14:26:14.774Z,4.87
2023-04-15T14:29:17.970Z,4.62
2023-04-15T14:32:21.295Z,4.82
2023-04-15T14:35:26.562Z,9.60
2023-04-15T14:38:28.975Z,5.63
2023-04-15T14:41:31.580Z,6.97
2023-04-15T14:44:33.921Z,8.32
2023-04-15T14:47:36.644Z,9.55
2023-04-15T14:50:40.005Z,8.82
2023-04-15T14:53:42.633Z,8.83
2023-04-15T14:56:44.957Z,9.45
2023-04-15T14:59:47.634Z,8.77
2023-04-15T15:02:50.019Z,6.87
2023-04-15T15:05:52.918Z,9.10
2023-04-15T15:08:55.371Z,8.30
2023-04-15T15:11:58.305Z,7.82
2023-04-15T15:15:03.035Z,6.35
2023-04-15T15:18:07.864Z,5.65
2023-04-15T15:21:10.907Z,5.68
2023-04-15T15:24:13.589Z,4.20
2023-04-15T15:27:16.065Z,3.80
2023-04-15T15:30:18.799Z,4.28
2023-04-15T15:33:21.380Z,7.60
2023-04-15T15:36:24.459Z,4.37
2023-04-15T15:39:27.658Z,5.17
2023-04-15T15:42:32.359Z,4.55
2023-04-15T15:45:35.605Z,6.57
2023-04-15T15:48:38.272Z,4.87
2023-04-15T15:51:40.605Z,5.78
2023-04-15T15:54:43.736Z,5.33
2023-04-15T15:57:46.497Z,5.35
2023-04-15T16:00:49.483Z,5.62
2023-04-15T16:03:52.329Z,5.40
2023-04-15T16:06:54.833Z,4.90
2023-04-15T16:09:57.753Z,7.10
2023-04-15T16:13:00.265Z,6.43
2023-04-15T16:16:02.832Z,5.82
2023-04-15T16:19:05.851Z,5.18
2023-04-15T16:22:08.908Z,4.82
2023-04-15T16:25:11.374Z,6.30
2023-04-15T16:28:25.768Z,7.85
2023-04-15T16:31:30.040Z,6.70
2023-04-15T16:34:32.683Z,7.85
2023-04-15T16:37:36.222Z,7.68
2023-04-15T16:40:40.255Z,7.47
2023-04-15T16:43:43.689Z,9.10
2023-04-15T16:46:46.395Z,7.07
2023-04-15T16:49:48.735Z,7.32
2023-04-15T16:52:51.369Z,7.85
2023-04-15T16:55:53.923Z,6.80
2023-04-15T16:58:56.842Z,7.25
2023-04-15T17:01:59.545Z,7.07
2023-04-15T17:05:02.272Z,7.43
2023-04-15T17:08:05.775Z,6.85
2023-04-15T17:11:08.433Z,9.13
2023-04-15T17:14:10.963Z,7.30
2023-04-15T17:17:13.668Z,6.97
2023-04-15T17:20:17.477Z,6.25
2023-04-15T17:23:20.077Z,7.03
2023-04-15T17:26:22.407Z,7.13
2023-04-15T17:29:25.145Z,8.23
2023-04-15T17:32:31.840Z,10.13
2023-04-15T17:35:34.731Z,9.27
2023-04-15T17:38:37.138Z,7.07
2023-04-15T17:41:39.757Z,7.53
2023-04-15T17:44:42.138Z,8.50
2023-04-15T17:47:44.848Z,9.38
2023-04-15T17:50:47.531Z,13.93
2023-04-15T17:53:51.114Z,9.52
2023-04-15T17:56:54.031Z,13.10
2023-04-15T17:59:59.789Z,11.98
2023-04-15T18:03:02.366Z,9.35
2023-04-15T18:06:05.430Z,11.55
2023-04-15T18:09:09.100Z,12.82
2023-04-15T18:12:11.762Z,8.73
2023-04-15T18:15:14.607Z,8.73
2023-04-15T18:18:17.308Z,9.23
2023-04-15T18:21:19.722Z,11.12
2023-04-15T18:24:22.655Z,10.57
2023-04-15T18:27:25.001Z,8.80
2023-04-15T18:30:27.647Z,8.23
2023-04-15T18:33:30.002Z,8.15
2023-04-15T18:36:32.845Z,10.15
2023-04-15T18:39:35.316Z,8.35
2023-04-15T18:42:37.991Z,7.87
2023-04-15T18:45:40.561Z,9.85
2023-04-15T18:48:43.294Z,8.40
2023-04-15T18:51:45.664Z,9.68
2023-04-15T18:54:48.284Z,9.00
2023-04-15T18:57:51.414Z,10.13
2023-04-15T19:00:54.499Z,9.77
2023-04-15T19:03:57.323Z,7.47
2023-04-15T19:07:00.183Z,8.50
2023-04-15T19:10:04.452Z,9.73
2023-04-15T19:13:07.475Z,8.50
2023-04-15T19:16:09.813Z,14.45
2023-04-15T19:19:14.702Z,12.25
2023-04-15T19:22:17.195Z,8.82
2023-04-15T19:25:19.975Z,12.05
2023-04-15T19:28:22.349Z,10.27
2023-04-15T19:31:26.118Z,13.18
2023-04-15T19:34:28.522Z,10.10
2023-04-15T19:37:31.389Z,7.57
2023-04-15T19:40:33.892Z,10.27
2023-04-15T19:43:37.114Z,7.57
2023-04-15T19:46:40.415Z,10.05
2023-04-15T19:49:43.468Z,10.52
2023-04-15T19:52:45.956Z,10.48
2023-04-15T19:55:48.959Z,12.88
2023-04-15T19:58:53.115Z,9.03
2023-04-15T20:01:55.859Z,10.57
2023-04-15T20:04:58.574Z,9.68
2023-04-15T20:08:03.039Z,8.95
2023-04-15T20:11:05.837Z,9.30
2023-04-15T20:14:08.329Z,11.20
2023-04-15T20:17:11.176Z,12.25
2023-04-15T20:20:13.575Z,7.87
2023-04-15T20:23:16.270Z,8.93
2023-04-15T20:26:19.668Z,9.82
2023-04-15T20:29:22.419Z,8.63
2023-04-15T20:32:25.055Z,9.52
2023-04-15T20:35:30.926Z,9.00
2023-04-15T20:38:33.360Z,10.32
2023-04-15T20:41:36.068Z,8.35
2023-04-15T20:44:38.654Z,12.07
2023-04-15T20:47:41.626Z,8.38
2023-04-15T20:50:43.994Z,10.43
2023-04-15T20:53:46.719Z,12.55
2023-04-15T20:56:49.358Z,10.98
2023-04-15T20:59:52.156Z,7.73
2023-04-15T21:02:54.660Z,10.63
2023-04-15T21:05:57.409Z,10.55
2023-04-15T21:08:59.819Z,10.73
2023-04-15T21:12:02.587Z,13.82
2023-04-15T21:15:05.989Z,11.43
2023-04-15T21:18:08.625Z,11.18
2023-04-15T21:21:11.197Z,12.60
2023-04-15T21:24:13.841Z,13.45
2023-04-15T21:27:16.175Z,13.27
2023-04-15T21:30:18.853Z,12.87
2023-04-15T21:33:21.316Z,14.63
2023-04-15T21:36:23.943Z,12.20
2023-04-15T21:39:26.423Z,10.27
2023-04-15T21:42:30.006Z,12.15
2023-04-15T21:45:32.488Z,10.30
2023-04-15T21:48:35.440Z,11.77
2023-04-15T21:51:37.772Z,13.60
2023-04-15T21:54:40.362Z,10.63
2023-04-15T21:57:42.667Z,10.27
2023-04-15T22:00:45.471Z,11.23
2023-04-15T22:03:48.374Z,12.07
2023-04-15T22:06:52.245Z,12.45
2023-04-15T22:09:54.944Z,10.80
2023-04-15T22:13:01.480Z,12.02
2023-04-15T22:16:04.150Z,13.20
2023-04-15T22:19:06.699Z,13.50
2023-04-15T22:22:09.857Z,13.45
2023-04-15T22:25:12.542Z,14.63
2023-04-15T22:28:15.347Z,16.30
2023-04-15T22:31:17.681Z,17.93
2023-04-15T22:34:21.619Z,16.50
2023-04-15T22:37:24.298Z,17.42
2023-04-15T22:40:26.948Z,16.75
2023-04-15T22:43:29.318Z,21.85
2023-04-15T22:46:32.027Z,19.37
2023-04-15T22:49:35.208Z,18.30
2023-04-15T22:52:38.087Z,19.90
2023-04-15T22:55:44.048Z,19.35
2023-04-15T22:58:47.126Z,20.50
2023-04-15T23:01:49.707Z,20.77
2023-04-15T23:04:52.561Z,23.40
2023-04-15T23:07:55.020Z,23.00
2023-04-15T23:10:57.634Z,21.73
2023-04-15T23:13:59.966Z,23.08
2023-04-15T23:17:02.634Z,21.60
2023-04-15T23:20:05.742Z,22.27
2023-04-15T23:23:08.362Z,24.10
2023-04-15T23:26:10.653Z,23.05
2023-04-15T23:29:13.263Z,21.48
2023-04-15T23:32:15.562Z,22.20
2023-04-15T23:35:18.194Z,22.87
2023-04-15T23:38:20.572Z,18.37
2023-04-15T23:41:23.188Z,20.23
2023-04-15T23:44:25.591Z,19.08
2023-04-15T23:47:28.299Z,18.83
2023-04-15T23:50:30.757Z,20.83
2023-04-15T23:53:33.618Z,21.27
2023-04-15T23:56:36.479Z,19.83
2023-04-15T23:59:39.115Z,20.30
